createdAt,value
2019-05-21T00:01:21.233Z,96864.47
2019-05-21T00:03:53.717Z,96869.31
2019-05-21T00:06:25.809Z,96868.69
2019-05-21T00:08:58.219Z,96870.11
2019-05-21T00:11:30.412Z,96868.27
2019-05-21T00:14:03.136Z,96869.90
2019-05-21T00:16:35.593Z,96865.48
2019-05-21T00:19:08.344Z,96868.69
2019-05-21T00:21:40.800Z,96871.98
2019-05-21T00:24:13.305Z,96864.56
2019-05-21T00:26:45.750Z,96860.89
2019-05-21T00:30:11.691Z,96866.82
2019-05-21T00:33:38.513Z,96861.48
2019-05-21T00:37:06.764Z,96861.69
2019-05-21T00:40:33.400Z,96856.14
2019-05-21T00:43:06.914Z,96862.52
2019-05-21T00:45:39.926Z,96860.98
2019-05-21T00:48:12.404Z,96868.16
2019-05-21T00:50:44.591Z,96856.14
2019-05-21T00:53:17.310Z,96864.16
2019-05-21T00:55:50.036Z,96858.11
2019-05-21T00:58:22.469Z,96864.16
2019-05-21T01:00:55.496Z,96859.35
2019-05-21T01:03:26.541Z,96866.52
2019-05-21T01:05:58.218Z,96859.23
2019-05-21T01:08:31.368Z,96870.23
2019-05-21T01:11:04.389Z,96862.22
2019-05-21T01:13:36.942Z,96861.80
2019-05-21T01:16:08.939Z,96866.02
2019-05-21T01:18:41.599Z,96865.72
2019-05-21T01:21:14.521Z,96869.02
2019-05-21T01:23:47.097Z,96868.69
2019-05-21T01:26:19.542Z,96875.06
2019-05-21T01:28:52.419Z,96867.97
2019-05-21T01:31:24.753Z,96870.84
2019-05-21T01:33:56.848Z,96877.52
2019-05-21T01:36:28.924Z,96870.25
2019-05-21T01:39:01.264Z,96873.52
2019-05-21T01:41:33.369Z,96875.17
2019-05-21T01:44:05.601Z,96867.38
2019-05-21T01:46:37.983Z,96871.58
2019-05-21T01:49:10.419Z,96868.80
2019-05-21T01:51:43.102Z,96867.99
2019-05-21T01:54:16.118Z,96865.73
2019-05-21T01:56:46.914Z,96871.88
2019-05-21T01:59:19.009Z,96865.33
2019-05-21T02:01:51.386Z,96864.08
2019-05-21T02:04:24.056Z,96863.27
2019-05-21T02:06:56.401Z,96866.05
2019-05-21T02:09:29.144Z,96860.52
2019-05-21T02:12:01.709Z,96859.59
2019-05-21T02:14:34.165Z,96868.09
2019-05-21T02:17:06.855Z,96861.01
2019-05-21T02:19:39.735Z,96865.02
2019-05-21T02:22:11.535Z,96861.01
2019-05-21T02:24:44.676Z,96858.88
2019-05-21T02:27:19.095Z,96865.72
2019-05-21T02:29:51.859Z,96860.20
2019-05-21T02:32:24.864Z,96866.05
2019-05-21T02:34:55.650Z,96864.71
2019-05-21T02:37:28.178Z,96863.05
2019-05-21T02:40:00.911Z,96868.21
2019-05-21T02:42:33.632Z,96862.22
2019-05-21T02:45:07.290Z,96856.79
2019-05-21T02:47:39.664Z,96860.79
2019-05-21T02:50:12.441Z,96862.63
2019-05-21T02:52:43.565Z,96864.46
2019-05-21T02:55:15.926Z,96856.46
2019-05-21T02:57:48.258Z,96860.16
2019-05-21T03:00:59.558Z,96859.33
2019-05-21T03:03:44.325Z,96866.13
2019-05-21T03:06:17.082Z,96866.63
2019-05-21T03:08:49.174Z,96864.58
2019-05-21T03:11:22.464Z,96865.61
2019-05-21T03:13:55.333Z,96878.23
2019-05-21T03:16:28.160Z,96872.58
2019-05-21T03:19:01.077Z,96872.98
2019-05-21T03:21:33.887Z,96880.69
2019-05-21T03:24:11.692Z,96880.39
2019-05-21T03:26:44.680Z,96889.50
2019-05-21T03:29:17.161Z,96880.80
2019-05-21T03:31:50.190Z,96884.37
2019-05-21T03:34:21.253Z,96895.86
2019-05-21T03:36:53.041Z,96894.00
2019-05-21T03:39:24.844Z,96884.88
2019-05-21T03:41:57.472Z,96881.41
2019-05-21T03:44:29.916Z,96880.27
2019-05-21T03:47:02.626Z,96887.94
2019-05-21T03:49:35.033Z,96894.01
2019-05-21T03:52:07.756Z,96894.72
2019-05-21T03:54:39.903Z,96893.18
2019-05-21T03:57:11.703Z,96892.05
2019-05-21T03:59:43.874Z,96901.58
2019-05-21T04:02:16.019Z,96895.75
2019-05-21T04:04:48.717Z,96903.52
2019-05-21T04:07:21.006Z,96902.19
2019-05-21T04:09:54.063Z,96907.31
2019-05-21T04:12:25.322Z,96911.84
2019-05-21T04:15:01.879Z,96901.78
2019-05-21T04:17:41.822Z,96907.65
2019-05-21T04:20:14.719Z,96906.91
2019-05-21T04:22:53.294Z,96916.14
2019-05-21T04:25:26.381Z,96907.31
2019-05-21T04:27:58.442Z,96915.11
2019-05-21T04:30:30.713Z,96919.74
2019-05-21T04:33:03.132Z,96920.04
2019-05-21T04:35:36.114Z,96916.77
2019-05-21T04:38:08.551Z,96924.77
2019-05-21T04:40:41.490Z,96921.58
2019-05-21T04:43:13.575Z,96931.44
2019-05-21T04:45:45.973Z,96931.74
2019-05-21T04:48:18.072Z,96929.27
2019-05-21T04:50:51.088Z,96919.84
2019-05-21T04:53:24.365Z,96929.91
2019-05-21T04:55:55.833Z,96927.23
2019-05-21T04:58:28.095Z,96930.00
2019-05-21T05:01:00.618Z,96925.38
2019-05-21T05:03:33.109Z,96935.03
2019-05-21T05:06:05.533Z,96932.38
2019-05-21T05:08:38.018Z,96932.17
2019-05-21T05:11:10.351Z,96924.67
2019-05-21T05:13:43.639Z,96936.47
2019-05-21T05:16:16.270Z,96933.27
2019-05-21T05:18:48.343Z,96933.59
2019-05-21T05:21:21.029Z,96938.53
2019-05-21T05:23:53.675Z,96941.49
2019-05-21T05:26:26.506Z,96949.52
2019-05-21T05:28:59.325Z,96954.31
2019-05-21T05:31:31.669Z,96948.98
2019-05-21T05:34:04.127Z,96954.55
2019-05-21T05:36:36.294Z,96954.02
2019-05-21T05:39:09.406Z,96960.68
2019-05-21T05:41:43.346Z,96958.64
2019-05-21T05:44:15.712Z,96960.91
2019-05-21T05:46:47.789Z,96957.21
2019-05-21T05:49:25.299Z,96955.57
2019-05-21T05:51:57.747Z,96967.77
2019-05-21T05:54:30.388Z,96965.56
2019-05-21T05:57:03.476Z,96970.25
2019-05-21T05:59:36.158Z,96968.98
2019-05-21T06:02:08.238Z,96975.34
2019-05-21T06:04:40.048Z,96975.34
2019-05-21T06:07:12.425Z,96972.81
2019-05-21T06:09:44.561Z,96973.03
2019-05-21T06:12:17.688Z,96973.97
2019-05-21T06:14:48.455Z,96975.30
2019-05-21T06:17:20.355Z,96979.00
2019-05-21T06:19:52.746Z,96977.69
2019-05-21T06:22:24.817Z,96971.94
2019-05-21T06:24:56.903Z,96979.53
2019-05-21T06:27:30.277Z,96975.64
2019-05-21T06:30:02.633Z,96987.23
2019-05-21T06:32:35.135Z,96979.73
2019-05-21T06:35:08.254Z,96991.95
2019-05-21T06:37:41.404Z,96985.39
2019-05-21T06:40:14.990Z,96985.50
2019-05-21T06:42:48.709Z,96998.20
2019-05-21T06:45:21.708Z,96996.98
2019-05-21T06:47:54.446Z,96996.88
2019-05-21T06:50:27.198Z,96999.14
2019-05-21T06:52:59.319Z,97000.79
2019-05-21T06:55:31.400Z,97007.97
2019-05-21T06:58:04.064Z,97007.56
2019-05-21T07:00:36.788Z,97010.02
2019-05-21T07:03:09.491Z,97005.70
2019-05-21T07:05:57.777Z,97017.83
2019-05-21T07:08:15.676Z,97014.00
2019-05-21T07:10:48.434Z,97009.70
2019-05-21T07:13:21.449Z,97008.59
2019-05-21T07:15:54.406Z,97014.64
2019-05-21T07:18:27.271Z,97019.27
2019-05-21T07:20:59.419Z,97026.05
2019-05-21T07:23:31.791Z,97027.17
2019-05-21T07:26:06.942Z,97030.55
2019-05-21T07:28:39.709Z,97026.15
2019-05-21T07:31:12.161Z,97032.41
2019-05-21T07:33:44.852Z,97032.53
2019-05-21T07:36:17.324Z,97041.22
2019-05-21T07:38:53.786Z,97039.70
2019-05-21T07:41:24.063Z,97039.70
2019-05-21T07:43:56.871Z,97038.07
2019-05-21T07:46:30.079Z,97044.62
2019-05-21T07:49:02.803Z,97041.34
2019-05-21T07:51:35.235Z,97047.62
2019-05-21T07:54:07.976Z,97056.76
2019-05-21T07:56:40.036Z,97054.78
2019-05-21T07:59:12.806Z,97055.72
2019-05-21T08:01:43.949Z,97052.14
2019-05-21T08:04:15.641Z,97053.75
2019-05-21T08:06:48.875Z,97054.89
2019-05-21T08:09:19.938Z,97049.03
2019-05-21T08:11:52.177Z,97056.76
2019-05-21T08:14:24.525Z,97059.41
2019-05-21T08:16:57.537Z,97059.43
2019-05-21T08:19:31.174Z,97063.84
2019-05-21T08:22:01.713Z,97072.69
2019-05-21T08:24:33.576Z,97069.48
2019-05-21T08:27:05.722Z,97076.27
2019-05-21T08:29:38.105Z,97077.50
2019-05-21T08:32:11.163Z,97076.97
2019-05-21T08:34:42.511Z,97078.12
2019-05-21T08:37:14.650Z,97078.22
2019-05-21T08:39:47.089Z,97083.45
2019-05-21T08:42:20.187Z,97085.09
2019-05-21T08:44:50.991Z,97082.83
2019-05-21T08:47:23.629Z,97084.38
2019-05-21T08:49:56.829Z,97089.31
2019-05-21T08:52:29.191Z,97093.00
2019-05-21T08:55:01.268Z,97097.61
2019-05-21T08:57:33.716Z,97099.89
2019-05-21T09:00:08.626Z,97107.92
2019-05-21T09:02:41.458Z,97114.28
2019-05-21T09:05:14.186Z,97123.01
2019-05-21T09:07:52.328Z,97123.52
2019-05-21T09:10:20.685Z,97119.70
2019-05-21T09:12:52.972Z,97118.89
2019-05-21T09:15:26.946Z,97118.07
2019-05-21T09:17:59.611Z,97119.52
2019-05-21T09:20:32.597Z,97121.78
2019-05-21T09:23:04.046Z,97121.48
2019-05-21T09:25:36.694Z,97117.67
2019-05-21T09:28:07.603Z,97130.63
2019-05-21T09:30:40.111Z,97132.25
2019-05-21T09:33:13.541Z,97130.61
2019-05-21T09:35:45.905Z,97130.39
2019-05-21T09:38:18.744Z,97134.41
2019-05-21T09:40:49.557Z,97131.45
2019-05-21T09:43:22.071Z,97135.25
2019-05-21T09:45:56.186Z,97135.34
2019-05-21T09:48:28.550Z,97135.02
2019-05-21T09:51:00.675Z,97137.51
2019-05-21T09:53:33.123Z,97142.21
2019-05-21T09:56:23.234Z,97145.73
2019-05-21T09:58:57.927Z,97147.50
2019-05-21T10:01:37.552Z,97148.53
2019-05-21T10:04:10.534Z,97144.44
2019-05-21T10:06:43.040Z,97153.59
2019-05-21T10:09:17.450Z,97155.56
2019-05-21T10:11:51.893Z,97153.73
2019-05-21T10:14:26.825Z,97156.11
2019-05-21T10:16:58.379Z,97158.70
2019-05-21T10:19:30.798Z,97161.08
2019-05-21T10:22:04.035Z,97161.16
2019-05-21T10:24:37.092Z,97168.72
2019-05-21T10:27:12.145Z,97171.12
2019-05-21T10:29:45.906Z,97174.04
2019-05-21T10:32:18.450Z,97175.80
2019-05-21T10:34:51.397Z,97175.20
2019-05-21T10:37:22.531Z,97174.71
2019-05-21T10:39:54.851Z,97172.66
2019-05-21T10:42:28.064Z,97173.61
2019-05-21T10:45:01.173Z,97179.11
2019-05-21T10:47:34.252Z,97188.86
2019-05-21T10:50:07.896Z,97182.44
2019-05-21T10:52:40.716Z,97190.33
2019-05-21T10:55:16.093Z,97184.09
2019-05-21T10:57:48.848Z,97188.66
2019-05-21T11:00:23.530Z,97190.66
2019-05-21T11:03:01.062Z,97187.94
2019-05-21T11:05:38.790Z,97192.09
2019-05-21T11:08:26.516Z,97196.44
2019-05-21T11:10:45.533Z,97201.45
2019-05-21T11:13:19.490Z,97199.02
2019-05-21T11:15:51.594Z,97192.34
2019-05-21T11:18:24.351Z,97198.64
2019-05-21T11:20:56.441Z,97201.44
2019-05-21T11:23:29.208Z,97199.39
2019-05-21T11:26:02.174Z,97202.83
2019-05-21T11:28:34.284Z,97209.55
2019-05-21T11:31:06.961Z,97211.50
2019-05-21T11:33:40.385Z,97210.58
2019-05-21T11:36:13.639Z,97210.83
2019-05-21T11:38:46.633Z,97209.23
2019-05-21T11:41:19.189Z,97213.94
2019-05-21T11:43:51.626Z,97211.78
2019-05-21T11:46:24.650Z,97210.88
2019-05-21T11:48:57.730Z,97213.37
2019-05-21T11:51:30.273Z,97212.95
2019-05-21T11:54:04.502Z,97222.55
2019-05-21T11:56:36.876Z,97228.41
2019-05-21T11:59:10.262Z,97219.95
2019-05-21T12:01:43.109Z,97223.00
2019-05-21T12:04:13.957Z,97223.67
2019-05-21T12:06:46.788Z,97224.25
2019-05-21T12:09:18.613Z,97223.09
2019-05-21T12:11:50.986Z,97225.66
2019-05-21T12:14:23.817Z,97235.81
2019-05-21T12:16:55.274Z,97230.05
2019-05-21T12:19:27.427Z,97233.98
2019-05-21T12:21:59.551Z,97234.48
2019-05-21T12:24:32.519Z,97250.52
2019-05-21T12:27:05.382Z,97252.43
2019-05-21T12:29:37.582Z,97261.14
2019-05-21T12:32:10.357Z,97263.14
2019-05-21T12:34:44.859Z,97267.35
2019-05-21T12:37:17.591Z,97272.72
2019-05-21T12:39:50.473Z,97273.04
2019-05-21T12:42:22.905Z,97278.19
2019-05-21T12:44:55.368Z,97284.86
2019-05-21T12:47:27.866Z,97287.44
2019-05-21T12:50:01.642Z,97294.15
2019-05-21T12:52:34.402Z,97301.29
2019-05-21T12:55:07.297Z,97300.92
2019-05-21T12:57:39.571Z,97297.84
2019-05-21T13:00:14.387Z,97300.83
2019-05-21T13:02:47.443Z,97299.56
2019-05-21T13:05:18.262Z,97303.37
2019-05-21T13:07:51.005Z,97307.39
2019-05-21T13:10:26.946Z,97304.80
2019-05-21T13:12:59.551Z,97316.55
2019-05-21T13:15:32.001Z,97322.19
2019-05-21T13:18:04.134Z,97319.64
2019-05-21T13:20:37.235Z,97322.91
2019-05-21T13:23:10.111Z,97328.51
2019-05-21T13:25:42.573Z,97331.31
2019-05-21T13:28:15.856Z,97344.08
2019-05-21T13:30:50.242Z,97342.36
2019-05-21T13:33:23.179Z,97346.45
2019-05-21T13:35:56.484Z,97346.34
2019-05-21T13:38:28.946Z,97348.60
2019-05-21T13:41:02.654Z,97357.84
2019-05-21T13:43:36.292Z,97359.95
2019-05-21T13:46:10.077Z,97370.59
2019-05-21T13:48:46.784Z,97367.92
2019-05-21T13:51:18.200Z,97373.23
2019-05-21T13:53:51.278Z,97378.86
2019-05-21T13:56:23.960Z,97379.42
2019-05-21T13:58:56.324Z,97381.13
2019-05-21T14:01:40.082Z,97389.89
2019-05-21T14:04:04.187Z,97389.73
2019-05-21T14:06:37.228Z,97396.42
2019-05-21T14:09:09.011Z,97398.48
2019-05-21T14:11:42.896Z,97405.48
2019-05-21T14:14:16.720Z,97402.05
2019-05-21T14:16:49.167Z,97409.88
2019-05-21T14:19:22.097Z,97410.64
2019-05-21T14:21:53.267Z,97416.22
2019-05-21T14:24:26.536Z,97416.80
2019-05-21T14:27:01.371Z,97419.69
2019-05-21T14:29:34.888Z,97420.75
2019-05-21T14:32:07.586Z,97428.31
2019-05-21T14:34:39.686Z,97427.39
2019-05-21T14:37:12.072Z,97434.22
2019-05-21T14:39:47.183Z,97432.03
2019-05-21T14:42:19.947Z,97437.41
2019-05-21T14:44:52.332Z,97443.78
2019-05-21T14:47:25.145Z,97449.98
2019-05-21T14:49:58.116Z,97448.03
2019-05-21T14:52:29.494Z,97449.99
2019-05-21T14:55:02.350Z,97457.42
2019-05-21T14:57:35.884Z,97459.34
2019-05-21T15:00:20.244Z,97463.95
2019-05-21T15:02:53.253Z,97463.66
2019-05-21T15:05:26.010Z,97472.61
2019-05-21T15:07:59.438Z,97475.70
2019-05-21T15:10:47.219Z,97470.46
2019-05-21T15:13:06.693Z,97477.98
2019-05-21T15:15:39.464Z,97472.00
2019-05-21T15:18:20.870Z,97478.67
2019-05-21T15:20:58.329Z,97482.05
2019-05-21T15:23:31.973Z,97488.45
2019-05-21T15:26:04.806Z,97492.04
2019-05-21T15:28:37.911Z,97493.37
2019-05-21T15:31:10.789Z,97500.87
2019-05-21T15:33:43.914Z,97502.52
2019-05-21T15:36:16.630Z,97511.65
2019-05-21T15:38:51.175Z,97512.58
2019-05-21T15:41:24.548Z,97516.45
2019-05-21T15:43:55.732Z,97521.37
2019-05-21T15:46:45.486Z,97520.77
2019-05-21T15:49:03.176Z,97519.30
2019-05-21T15:51:35.334Z,97518.45
2019-05-21T15:54:07.954Z,97527.59
2019-05-21T15:56:41.034Z,97528.01
2019-05-21T15:59:14.191Z,97526.02
2019-05-21T16:01:46.341Z,97531.37
2019-05-21T16:04:19.472Z,97534.73
2019-05-21T16:06:51.975Z,97534.28
2019-05-21T16:09:24.732Z,97539.61
2019-05-21T16:11:57.404Z,97556.45
2019-05-21T16:14:30.723Z,97553.64
2019-05-21T16:17:03.455Z,97557.79
2019-05-21T16:19:36.162Z,97555.65
2019-05-21T16:22:08.833Z,97569.37
2019-05-21T16:24:41.205Z,97572.63
2019-05-21T16:27:13.912Z,97573.13
2019-05-21T16:29:46.868Z,97571.52
2019-05-21T16:32:17.755Z,97579.23
2019-05-21T16:34:50.243Z,97580.56
2019-05-21T16:37:23.372Z,97586.41
2019-05-21T16:39:55.857Z,97586.39
2019-05-21T16:42:28.249Z,97585.13
2019-05-21T16:45:00.563Z,97588.20
2019-05-21T16:47:44.291Z,97586.86
2019-05-21T16:50:09.475Z,97585.13
2019-05-21T16:52:41.847Z,97594.54
2019-05-21T16:55:14.107Z,97598.63
2019-05-21T16:57:46.870Z,97599.02
2019-05-21T17:00:21.936Z,97595.95
2019-05-21T17:02:55.320Z,97602.00
2019-05-21T17:05:28.870Z,97605.20
2019-05-21T17:08:02.187Z,97602.72
2019-05-21T17:10:33.798Z,97609.48
2019-05-21T17:13:06.186Z,97613.71
2019-05-21T17:15:38.409Z,97608.45
2019-05-21T17:18:11.053Z,97618.11
2019-05-21T17:20:43.577Z,97620.20
2019-05-21T17:23:15.956Z,97624.93
2019-05-21T17:25:48.328Z,97622.45
2019-05-21T17:28:21.111Z,97629.94
2019-05-21T17:30:53.622Z,97633.52
2019-05-21T17:33:26.159Z,97637.84
2019-05-21T17:35:59.095Z,97635.36
2019-05-21T17:38:30.656Z,97635.44
2019-05-21T17:41:02.904Z,97636.77
2019-05-21T17:43:36.092Z,97646.13
2019-05-21T17:46:09.711Z,97649.80
2019-05-21T17:48:42.569Z,97652.61
2019-05-21T17:51:14.856Z,97652.34
2019-05-21T17:53:48.336Z,97657.38
2019-05-21T17:56:22.091Z,97656.73
2019-05-21T17:58:55.382Z,97662.08
2019-05-21T18:01:27.273Z,97666.58
2019-05-21T18:03:59.102Z,97665.32
2019-05-21T18:06:31.049Z,97663.30
2019-05-21T18:09:05.416Z,97670.92
2019-05-21T18:11:39.191Z,97673.41
2019-05-21T18:14:12.032Z,97680.97
2019-05-21T18:16:44.390Z,97682.83
2019-05-21T18:19:17.600Z,97691.03
2019-05-21T18:21:51.036Z,97687.02
2019-05-21T18:24:24.176Z,97692.37
2019-05-21T18:26:56.873Z,97694.89
2019-05-21T18:29:29.877Z,97693.89
2019-05-21T18:32:02.975Z,97700.83
2019-05-21T18:34:35.656Z,97706.55
2019-05-21T18:37:08.525Z,97710.17
2019-05-21T18:39:40.905Z,97715.24
2019-05-21T18:42:22.311Z,97725.61
2019-05-21T18:44:49.017Z,97729.47
2019-05-21T18:47:22.208Z,97733.03
2019-05-21T18:49:53.215Z,97733.72
2019-05-21T18:52:25.963Z,97740.70
2019-05-21T18:54:57.288Z,97742.41
2019-05-21T18:57:29.310Z,97747.13
2019-05-21T19:00:01.493Z,97755.82
2019-05-21T19:02:34.809Z,97755.52
2019-05-21T19:05:08.576Z,97763.70
2019-05-21T19:07:41.618Z,97767.71
2019-05-21T19:10:15.474Z,97768.73
2019-05-21T19:12:48.503Z,97773.30
2019-05-21T19:15:21.178Z,97779.81
2019-05-21T19:17:54.187Z,97780.18
2019-05-21T19:20:25.054Z,97785.33
2019-05-21T19:22:57.408Z,97789.73
2019-05-21T19:25:30.049Z,97794.55
2019-05-21T19:28:03.461Z,97794.11
2019-05-21T19:30:36.171Z,97803.27
2019-05-21T19:33:09.402Z,97801.15
2019-05-21T19:35:42.475Z,97808.31
2019-05-21T19:38:15.161Z,97814.49
2019-05-21T19:40:49.049Z,97813.34
2019-05-21T19:43:21.911Z,97819.36
2019-05-21T19:45:54.867Z,97819.54
2019-05-21T19:48:25.672Z,97823.59
2019-05-21T19:51:00.405Z,97824.93
2019-05-21T19:53:33.887Z,97826.63
2019-05-21T19:56:06.829Z,97830.95
2019-05-21T19:58:39.942Z,97836.98
2019-05-21T20:01:13.712Z,97841.98
2019-05-21T20:03:47.213Z,97853.02
2019-05-21T20:06:21.128Z,97843.37
2019-05-21T20:08:54.510Z,97846.86
2019-05-21T20:11:29.188Z,97853.53
2019-05-21T20:14:01.573Z,97854.04
2019-05-21T20:16:34.516Z,97860.39
2019-05-21T20:19:07.551Z,97857.89
2019-05-21T20:21:40.061Z,97860.91
2019-05-21T20:24:12.552Z,97861.72
2019-05-21T20:26:46.182Z,97865.09
2019-05-21T20:29:20.440Z,97866.91
2019-05-21T20:31:53.279Z,97870.73
2019-05-21T20:34:26.161Z,97873.09
2019-05-21T20:36:58.605Z,97872.39
2019-05-21T20:39:33.165Z,97880.57
2019-05-21T20:42:06.473Z,97880.39
2019-05-21T20:44:39.521Z,97877.23
2019-05-21T20:47:13.493Z,97874.41
2019-05-21T20:49:48.798Z,97882.56
2019-05-21T20:52:22.424Z,97883.41
2019-05-21T20:54:57.203Z,97893.09
2019-05-21T20:57:30.678Z,97889.77
2019-05-21T21:00:03.197Z,97889.28
2019-05-21T21:02:36.403Z,97883.46
2019-05-21T21:05:09.833Z,97884.13
2019-05-21T21:07:43.414Z,97890.48
2019-05-21T21:10:16.322Z,97893.77
2019-05-21T21:12:49.262Z,97895.11
2019-05-21T21:15:22.080Z,97892.48
2019-05-21T21:17:53.598Z,97894.66
2019-05-21T21:20:26.721Z,97894.13
2019-05-21T21:22:59.417Z,97900.98
2019-05-21T21:25:32.036Z,97897.33
2019-05-21T21:28:05.794Z,97900.48
2019-05-21T21:30:39.269Z,97903.81
2019-05-21T21:33:12.670Z,97903.65
2019-05-21T21:35:45.540Z,97902.18
2019-05-21T21:38:23.123Z,97903.20
2019-05-21T21:40:56.194Z,97908.71
2019-05-21T21:43:28.986Z,97908.19
2019-05-21T21:46:03.044Z,97910.41
2019-05-21T21:48:37.552Z,97905.52
2019-05-21T21:51:13.227Z,97911.21
2019-05-21T21:53:46.016Z,97910.54
2019-05-21T21:56:19.832Z,97914.23
2019-05-21T21:58:52.786Z,97911.73
2019-05-21T22:01:50.161Z,97919.56
2019-05-21T22:04:31.896Z,97914.90
2019-05-21T22:07:05.832Z,97924.59
2019-05-21T22:09:40.093Z,97918.90
2019-05-21T22:12:18.272Z,97919.25
2019-05-21T22:15:02.027Z,97923.44
2019-05-21T22:17:34.728Z,97918.63
2019-05-21T22:20:09.720Z,97916.94
2019-05-21T22:22:42.580Z,97921.65
2019-05-21T22:25:15.680Z,97924.95
2019-05-21T22:27:47.186Z,97925.48
2019-05-21T22:30:20.894Z,97926.81
2019-05-21T22:32:54.183Z,97934.00
2019-05-21T22:35:24.973Z,97933.83
2019-05-21T22:37:57.111Z,97935.87
2019-05-21T22:40:32.594Z,97936.36
2019-05-21T22:43:05.166Z,97938.70
2019-05-21T22:45:38.564Z,97943.69
2019-05-21T22:48:11.002Z,97942.36
2019-05-21T22:50:43.052Z,97945.73
2019-05-21T22:53:15.493Z,97943.37
2019-05-21T22:55:48.201Z,97945.38
2019-05-21T22:58:20.572Z,97951.73
2019-05-21T23:00:58.811Z,97957.94
2019-05-21T23:03:31.763Z,97956.61
2019-05-21T23:06:04.779Z,97955.94
2019-05-21T23:08:36.922Z,97956.78
2019-05-21T23:11:08.980Z,97957.80
2019-05-21T23:13:41.966Z,97961.48
2019-05-21T23:16:15.053Z,97961.30
2019-05-21T23:18:49.146Z,97955.97
2019-05-21T23:21:22.889Z,97956.50
2019-05-21T23:23:57.134Z,97960.03
2019-05-21T23:26:30.797Z,97961.05
2019-05-21T23:29:04.036Z,97967.08
2019-05-21T23:31:36.486Z,97957.92
2019-05-21T23:34:10.418Z,97967.25
2019-05-21T23:36:44.689Z,97962.24
2019-05-21T23:39:21.256Z,97966.27
2019-05-21T23:41:55.671Z,97962.94
2019-05-21T23:44:28.983Z,97964.96
2019-05-21T23:47:00.533Z,97960.97
2019-05-21T23:49:32.773Z,97966.61
2019-05-21T23:52:04.992Z,97964.30
2019-05-21T23:54:37.575Z,97967.10
2019-05-21T23:57:16.297Z,97967.45
2019-05-21T23:59:49.054Z,97976.63
